Time;durP1;ratioP1;P1;durP2;ratioP2;P2;SDS_P1;SDS_P2;PMS_P1;PMS_P2;Temp;Humidity;BMP_temperature;BMP_pressure;BME280_temperature;BME280_humidity;BME280_pressure;Samples;Min_cycle;Max_cycle;Signal;HPM_P1;HPM_P2
2023/04/26 00:02:31;0.00;0.00;0.62;0.00;0.00;0.62;2.10;1.13;;;25.00;22.30;;;;;;2264911;61;20433;-65
2023/04/26 00:05:18;0.00;0.00;0.62;0.00;0.00;0.62;1.80;1.13;;;25.00;22.30;;;;;;2268109;61;20478;-66
2023/04/26 00:08:03;0.00;0.00;0.62;0.00;0.00;0.62;2.00;1.43;;;25.00;22.30;;;;;;2268302;61;20359;-64
2023/04/26 00:10:48;0.00;0.00;0.62;0.00;0.00;0.62;1.87;1.17;;;25.00;22.30;;;;;;2267189;61;20379;-65
2023/04/26 00:13:32;0.00;0.00;0.62;0.00;0.00;0.62;1.83;1.07;;;25.00;22.30;;;;;;2267970;61;20433;-65
2023/04/26 00:16:19;0.00;0.00;0.62;0.00;0.00;0.62;2.00;1.10;;;25.00;22.30;;;;;;2268029;61;20456;-65
2023/04/26 00:19:04;0.00;0.00;0.62;0.00;0.00;0.62;1.63;1.10;;;25.00;22.30;;;;;;2267465;61;20433;-65
2023/04/26 00:21:49;0.00;0.00;0.62;0.00;0.00;0.62;1.83;1.00;;;24.90;22.20;;;;;;2268318;61;20406;-64
2023/04/26 00:24:34;0.00;0.00;0.62;0.00;0.00;0.62;1.70;1.17;;;24.90;22.20;;;;;;2267614;61;20459;-64
2023/04/26 00:27:19;0.00;0.00;0.62;0.00;0.00;0.62;1.87;1.20;;;24.90;22.20;;;;;;2268061;61;20449;-67
2023/04/26 00:30:06;0.00;0.00;0.62;0.00;0.00;0.62;2.33;1.33;;;24.90;22.20;;;;;;2264634;61;20787;-65
2023/04/26 00:32:52;0.00;0.00;0.62;0.00;0.00;0.62;2.00;1.13;;;24.90;22.20;;;;;;2267409;61;20772;-64
2023/04/26 00:35:37;0.00;0.00;0.62;0.00;0.00;0.62;1.90;1.00;;;24.90;22.20;;;;;;2265025;61;20565;-65
2023/04/26 00:38:22;0.00;0.00;0.62;0.00;0.00;0.62;1.90;1.20;;;24.90;22.20;;;;;;2267789;61;20406;-65
2023/04/26 00:41:07;0.00;0.00;0.62;0.00;0.00;0.62;2.00;1.10;;;24.90;22.20;;;;;;2267698;61;20521;-64
2023/04/26 00:43:52;0.00;0.00;0.62;0.00;0.00;0.62;1.83;1.10;;;24.80;22.10;;;;;;2267918;61;20355;-65
2023/04/26 00:46:37;0.00;0.00;0.62;0.00;0.00;0.62;2.07;1.30;;;24.80;22.10;;;;;;2268039;61;20407;-66
2023/04/26 00:49:25;0.00;0.00;0.62;0.00;0.00;0.62;1.60;1.00;;;24.80;22.10;;;;;;2267680;61;20437;-64
2023/04/26 00:52:10;0.00;0.00;0.62;0.00;0.00;0.62;1.73;1.20;;;24.80;22.10;;;;;;2267752;61;20416;-64
2023/04/26 00:54:56;0.00;0.00;0.62;0.00;0.00;0.62;1.57;0.90;;;24.80;22.10;;;;;;2267402;61;20362;-65
2023/04/26 00:57:41;0.00;0.00;0.62;0.00;0.00;0.62;1.97;1.20;;;24.80;22.10;;;;;;2264718;61;20362;-65
2023/04/26 01:00:26;0.00;0.00;0.62;0.00;0.00;0.62;1.60;0.90;;;24.80;22.10;;;;;;2267456;61;20383;-64
2023/04/26 01:03:11;0.00;0.00;0.62;0.00;0.00;0.62;1.93;1.10;;;24.80;22.10;;;;;;2268442;61;20371;-65
2023/04/26 01:05:58;0.00;0.00;0.62;0.00;0.00;0.62;1.60;0.90;;;24.80;22.10;;;;;;2268841;61;20429;-65
2023/04/26 01:08:43;0.00;0.00;0.62;0.00;0.00;0.62;1.80;1.17;;;24.70;22.00;;;;;;2268456;61;20442;-65
2023/04/26 01:11:27;0.00;0.00;0.62;0.00;0.00;0.62;1.77;0.80;;;24.70;22.00;;;;;;2268551;61;20366;-64
2023/04/26 01:14:14;0.00;0.00;0.62;0.00;0.00;0.62;1.70;1.00;;;24.70;22.00;;;;;;2268544;61;20810;-65
2023/04/26 01:17:00;0.00;0.00;0.62;0.00;0.00;0.62;2.70;1.00;;;24.70;22.00;;;;;;2264860;61;20412;-65
2023/04/26 01:19:49;0.00;0.00;0.62;0.00;0.00;0.62;2.10;1.37;;;24.70;22.00;;;;;;2268409;61;20385;-64
2023/04/26 01:22:35;0.00;0.00;0.62;0.00;0.00;0.62;1.60;0.90;;;24.70;22.10;;;;;;2268618;61;20355;-65
2023/04/26 01:25:20;0.00;0.00;0.62;0.00;0.00;0.62;1.60;0.90;;;24.70;22.00;;;;;;2265294;61;20412;-65
2023/04/26 01:28:05;0.00;0.00;0.62;0.00;0.00;0.62;1.70;0.80;;;24.70;22.00;;;;;;2265696;61;20405;-65
2023/04/26 01:30:50;0.00;0.00;0.62;0.00;0.00;0.62;1.50;0.90;;;24.70;22.00;;;;;;2267996;61;20382;-65
2023/04/26 01:33:34;0.00;0.00;0.62;0.00;0.00;0.62;1.50;0.80;;;24.70;22.00;;;;;;2265080;61;20907;-65
2023/04/26 01:36:19;0.00;0.00;0.62;0.00;0.00;0.62;1.80;1.10;;;24.60;22.00;;;;;;2268847;61;20876;-65
2023/04/26 01:39:07;0.00;0.00;0.62;0.00;0.00;0.62;1.83;0.90;;;24.60;22.00;;;;;;2267857;61;20900;-64
2023/04/26 01:41:52;0.00;0.00;0.62;0.00;0.00;0.62;1.53;0.90;;;24.60;22.00;;;;;;2265440;61;20398;-65
2023/04/26 01:44:36;0.00;0.00;0.62;0.00;0.00;0.62;1.50;0.90;;;24.60;22.00;;;;;;2268189;61;20861;-65
2023/04/26 01:47:21;0.00;0.00;0.62;0.00;0.00;0.62;1.40;0.80;;;24.60;22.00;;;;;;2265214;61;20359;-63
2023/04/26 01:52:49;0.00;0.00;0.62;0.00;0.00;0.62;1.70;0.90;;;24.60;22.00;;;;;;2265483;61;20385;-65
2023/04/26 01:55:35;0.00;0.00;0.62;0.00;0.00;0.62;1.40;0.80;;;24.60;22.00;;;;;;2264469;61;20761;-64
2023/04/26 01:58:19;0.00;0.00;0.62;0.00;0.00;0.62;1.57;0.90;;;24.60;22.00;;;;;;2264753;61;20384;-64
2023/04/26 02:01:07;0.00;0.00;0.62;0.00;0.00;0.62;1.50;0.83;;;24.60;22.00;;;;;;2261868;61;20754;-64
2023/04/26 02:03:51;0.00;0.00;0.62;0.00;0.00;0.62;1.63;0.80;;;24.50;21.90;;;;;;2260591;61;20929;-64
2023/04/26 02:06:37;0.00;0.00;0.62;0.00;0.00;0.62;1.60;1.00;;;24.50;22.00;;;;;;2260365;61;20936;-65
2023/04/26 02:09:22;0.00;0.00;0.62;0.00;0.00;0.62;1.60;0.80;;;24.50;22.00;;;;;;2259618;61;20392;-65
2023/04/26 02:12:08;0.00;0.00;0.62;0.00;0.00;0.62;1.70;1.10;;;24.50;22.00;;;;;;2260474;61;20575;-65
2023/04/26 02:14:52;0.00;0.00;0.62;0.00;0.00;0.62;1.50;0.83;;;24.50;22.00;;;;;;2260030;61;21029;-65
2023/04/26 02:17:38;0.00;0.00;0.62;0.00;0.00;0.62;2.37;0.87;;;24.50;22.00;;;;;;2260269;61;20904;-65
2023/04/26 02:20:23;0.00;0.00;0.62;0.00;0.00;0.62;1.60;0.80;;;24.50;22.00;;;;;;2259976;61;20384;-64
2023/04/26 02:23:08;0.00;0.00;0.62;0.00;0.00;0.62;1.40;0.80;;;24.50;22.00;;;;;;2259841;61;20408;-65
2023/04/26 02:25:53;0.00;0.00;0.62;0.00;0.00;0.62;1.30;0.70;;;24.40;21.90;;;;;;2257244;61;20357;-65
2023/04/26 02:28:39;0.00;0.00;0.62;0.00;0.00;0.62;1.43;0.80;;;24.40;22.00;;;;;;2260319;61;20357;-65
2023/04/26 02:31:24;0.00;0.00;0.62;0.00;0.00;0.62;1.43;0.90;;;24.40;22.00;;;;;;2256925;61;20365;-65
2023/04/26 02:34:08;0.00;0.00;0.62;0.00;0.00;0.62;1.60;0.80;;;24.50;22.10;;;;;;2260054;61;20447;-65
2023/04/26 02:36:53;0.00;0.00;0.62;0.00;0.00;0.62;1.30;0.80;;;24.40;22.00;;;;;;2260248;61;20357;-64
2023/04/26 02:39:38;0.00;0.00;0.62;0.00;0.00;0.62;1.50;0.80;;;24.40;22.00;;;;;;2259941;61;20385;-65
2023/04/26 02:42:24;0.00;0.00;0.62;0.00;0.00;0.62;1.70;0.80;;;24.40;22.00;;;;;;2257048;61;20876;-65
2023/04/26 02:45:11;0.00;0.00;0.62;0.00;0.00;0.62;1.70;0.80;;;24.40;22.00;;;;;;2259506;61;20606;-65
2023/04/26 02:47:56;0.00;0.00;0.62;0.00;0.00;0.62;1.50;0.80;;;24.40;22.00;;;;;;2260045;61;20411;-64
2023/04/26 02:50:41;0.00;0.00;0.62;0.00;0.00;0.62;1.40;0.80;;;24.40;22.60;;;;;;2259833;61;20385;-65
2023/04/26 02:53:26;0.00;0.00;0.62;0.00;0.00;0.62;1.40;0.80;;;24.30;22.60;;;;;;2260648;61;21010;-65
2023/04/26 02:56:11;0.00;0.00;0.62;0.00;0.00;0.62;1.60;0.70;;;24.30;22.00;;;;;;2261073;61;20407;-64
2023/04/26 02:58:56;0.00;0.00;0.62;0.00;0.00;0.62;1.67;0.90;;;24.30;22.00;;;;;;2260713;61;20380;-65
2023/04/26 03:01:42;0.00;0.00;0.62;0.00;0.00;0.62;1.60;0.80;;;24.30;22.00;;;;;;2261153;61;20384;-65
2023/04/26 03:04:29;0.00;0.00;0.62;0.00;0.00;0.62;1.40;0.80;;;24.30;22.00;;;;;;2260992;61;20353;-65
2023/04/26 03:07:14;0.00;0.00;0.62;0.00;0.00;0.62;1.60;0.83;;;24.30;22.00;;;;;;2264019;61;20359;-65
2023/04/26 03:09:59;0.00;0.00;0.62;0.00;0.00;0.62;1.67;1.00;;;24.30;22.00;;;;;;2263623;61;20380;-66
2023/04/26 03:12:43;0.00;0.00;0.62;0.00;0.00;0.62;1.40;0.70;;;24.20;21.90;;;;;;2264424;61;20768;-64
2023/04/26 03:15:28;0.00;0.00;0.62;0.00;0.00;0.62;1.30;0.70;;;24.30;22.00;;;;;;2260659;61;20402;-65
2023/04/26 03:18:14;0.00;0.00;0.62;0.00;0.00;0.62;1.60;0.83;;;24.20;22.00;;;;;;2264133;61;20368;-65
2023/04/26 03:21:00;0.00;0.00;0.62;0.00;0.00;0.62;1.37;0.90;;;24.30;22.00;;;;;;2260789;61;20456;-65
2023/04/26 03:23:45;0.00;0.00;0.62;0.00;0.00;0.62;1.70;0.90;;;24.20;22.00;;;;;;2264297;61;20355;-65
2023/04/26 03:26:31;0.00;0.00;0.62;0.00;0.00;0.62;1.40;0.90;;;24.20;22.00;;;;;;2266353;61;20892;-65
2023/04/26 03:29:16;0.00;0.00;0.62;0.00;0.00;0.62;1.30;0.70;;;24.20;22.00;;;;;;2260493;61;20415;-67
2023/04/26 03:32:00;0.00;0.00;0.62;0.00;0.00;0.62;1.50;0.80;;;24.20;22.00;;;;;;2260984;61;20449;-65
2023/04/26 03:34:48;0.00;0.00;0.62;0.00;0.00;0.62;1.30;0.80;;;24.20;22.00;;;;;;2260879;61;20690;-65
2023/04/26 03:37:33;0.00;0.00;0.62;0.00;0.00;0.62;1.30;0.70;;;24.20;22.00;;;;;;2266168;61;20888;-64
2023/04/26 03:40:23;0.00;0.00;0.62;0.00;0.00;0.62;1.57;0.90;;;24.20;22.00;;;;;;2260731;61;20434;-65
2023/04/26 03:43:08;0.00;0.00;0.62;0.00;0.00;0.62;1.60;0.87;;;24.20;22.00;;;;;;2260883;61;20479;-65
2023/04/26 03:45:54;0.00;0.00;0.62;0.00;0.00;0.62;1.67;0.73;;;24.20;22.00;;;;;;2263861;61;20392;-66
2023/04/26 03:48:39;0.00;0.00;0.62;0.00;0.00;0.62;1.80;0.90;;;24.10;21.90;;;;;;2261050;61;20761;-65
2023/04/26 03:51:27;0.00;0.00;0.62;0.00;0.00;0.62;1.30;0.77;;;24.10;21.90;;;;;;2260753;61;20414;-66
2023/04/26 03:54:11;0.00;0.00;0.62;0.00;0.00;0.62;1.47;0.70;;;24.10;21.90;;;;;;2261054;61;20392;-68
2023/04/26 03:56:57;0.00;0.00;0.62;0.00;0.00;0.62;1.40;0.80;;;24.10;22.00;;;;;;2261096;61;20398;-65
2023/04/26 03:59:42;0.00;0.00;0.62;0.00;0.00;0.62;1.40;0.60;;;24.10;22.00;;;;;;2259997;61;20508;-65
2023/04/26 04:02:27;0.00;0.00;0.62;0.00;0.00;0.62;2.00;0.90;;;24.10;22.00;;;;;;2260951;61;20449;-65
2023/04/26 04:05:11;0.00;0.00;0.62;0.00;0.00;0.62;1.53;0.70;;;24.10;22.00;;;;;;2260972;61;20494;-65
2023/04/26 04:07:57;0.00;0.00;0.62;0.00;0.00;0.62;1.40;0.70;;;24.10;22.00;;;;;;2266076;61;20375;-66
2023/04/26 04:10:44;0.00;0.00;0.62;0.00;0.00;0.62;1.80;0.83;;;24.10;22.00;;;;;;2260851;61;20384;-65
2023/04/26 04:13:29;0.00;0.00;0.62;0.00;0.00;0.62;1.30;0.80;;;24.10;22.00;;;;;;2260362;61;20420;-64
2023/04/26 04:16:13;0.00;0.00;0.62;0.00;0.00;0.62;1.47;0.77;;;24.10;22.00;;;;;;2263955;61;20467;-65
2023/04/26 04:18:59;0.00;0.00;0.62;0.00;0.00;0.62;1.60;0.80;;;24.10;22.00;;;;;;2260382;61;20383;-65
2023/04/26 04:21:44;0.00;0.00;0.62;0.00;0.00;0.62;1.60;0.90;;;24.00;21.90;;;;;;2260585;61;20406;-65
2023/04/26 04:24:31;0.00;0.00;0.62;0.00;0.00;0.62;1.70;0.80;;;24.00;22.00;;;;;;2260793;61;20408;-66
2023/04/26 04:27:15;0.00;0.00;0.62;0.00;0.00;0.62;1.57;0.83;;;24.00;21.90;;;;;;2264168;61;20448;-65
2023/04/26 04:30:02;0.00;0.00;0.62;0.00;0.00;0.62;2.13;0.90;;;24.00;21.90;;;;;;2260159;61;20407;-65
2023/04/26 04:32:47;0.00;0.00;0.62;0.00;0.00;0.62;1.43;0.90;;;24.00;22.00;;;;;;2260861;61;20476;-65
2023/04/26 04:35:34;0.00;0.00;0.62;0.00;0.00;0.62;1.63;0.90;;;24.00;21.90;;;;;;2260557;61;20379;-65
2023/04/26 04:38:22;0.00;0.00;0.62;0.00;0.00;0.62;1.40;0.80;;;24.00;21.90;;;;;;2260776;61;20407;-65
2023/04/26 04:41:11;0.00;0.00;0.62;0.00;0.00;0.62;1.83;0.93;;;24.00;22.00;;;;;;2260285;61;20988;-66
2023/04/26 04:43:57;0.00;0.00;0.62;0.00;0.00;0.62;1.50;0.80;;;24.00;22.00;;;;;;2263673;61;20992;-65
2023/04/26 04:46:42;0.00;0.00;0.62;0.00;0.00;0.62;1.50;0.93;;;24.00;22.00;;;;;;2260712;61;20360;-64
2023/04/26 04:49:27;0.00;0.00;0.62;0.00;0.00;0.62;1.90;1.23;;;24.00;22.00;;;;;;2260379;61;20843;-64
2023/04/26 04:52:12;0.00;0.00;0.62;0.00;0.00;0.62;1.50;0.80;;;23.90;21.90;;;;;;2260442;61;20375;-62
2023/04/26 04:54:57;0.00;0.00;0.62;0.00;0.00;0.62;1.67;0.90;;;23.90;21.90;;;;;;2260445;61;20375;-65
2023/04/26 04:57:43;0.00;0.00;0.62;0.00;0.00;0.62;1.50;0.80;;;23.90;21.90;;;;;;2263352;61;20499;-65
2023/04/26 05:00:28;0.00;0.00;0.62;0.00;0.00;0.62;2.10;1.20;;;23.90;21.90;;;;;;2265596;61;20841;-65
2023/04/26 05:03:21;0.00;0.00;0.62;0.00;0.00;0.62;1.40;0.80;;;23.90;21.90;;;;;;2260688;61;20356;-66
2023/04/26 05:06:06;0.00;0.00;0.62;0.00;0.00;0.62;2.17;1.00;;;23.90;21.90;;;;;;2263291;61;20364;-65
2023/04/26 05:08:51;0.00;0.00;0.62;0.00;0.00;0.62;1.33;0.80;;;23.90;21.90;;;;;;2263398;61;20374;-64
2023/04/26 05:11:36;0.00;0.00;0.62;0.00;0.00;0.62;1.80;1.00;;;23.90;21.90;;;;;;2260696;61;20363;-65
2023/04/26 05:14:24;0.00;0.00;0.62;0.00;0.00;0.62;2.10;1.27;;;23.90;21.90;;;;;;2260030;61;20415;-65
2023/04/26 05:17:09;0.00;0.00;0.62;0.00;0.00;0.62;1.43;0.90;;;23.90;22.00;;;;;;2263540;61;20449;-64
2023/04/26 05:19:54;0.00;0.00;0.62;0.00;0.00;0.62;1.67;0.90;;;23.90;22.00;;;;;;2259961;61;20910;-65
2023/04/26 05:22:38;0.00;0.00;0.62;0.00;0.00;0.62;2.20;1.13;;;23.90;22.00;;;;;;2263745;61;20356;-64
2023/04/26 05:25:24;0.00;0.00;0.62;0.00;0.00;0.62;1.50;0.90;;;23.90;22.00;;;;;;2260645;61;20383;-64
2023/04/26 05:28:15;0.00;0.00;0.62;0.00;0.00;0.62;1.50;0.80;;;23.90;22.00;;;;;;2260296;61;20359;-66
2023/04/26 05:31:20;0.00;0.00;0.62;0.00;0.00;0.62;1.90;1.10;;;23.80;21.90;;;;;;2260390;61;20402;-64
2023/04/26 05:34:20;0.00;0.00;0.62;0.00;0.00;0.62;1.90;1.07;;;23.80;21.90;;;;;;2263335;61;20834;-65
2023/04/26 05:37:09;0.00;0.00;0.62;0.00;0.00;0.62;1.70;1.00;;;23.80;21.90;;;;;;2260527;61;20355;-64
2023/04/26 05:39:53;0.00;0.00;0.62;0.00;0.00;0.62;1.70;1.17;;;23.80;22.00;;;;;;2263513;61;21006;-64
2023/04/26 05:42:38;0.00;0.00;0.62;0.00;0.00;0.62;1.67;1.07;;;23.80;22.00;;;;;;2260280;61;20360;-68
2023/04/26 05:45:26;0.00;0.00;0.62;0.00;0.00;0.62;2.50;1.60;;;23.80;21.90;;;;;;2260580;61;20475;-65
2023/04/26 05:48:12;0.00;0.00;0.62;0.00;0.00;0.62;2.30;1.40;;;23.80;22.00;;;;;;2260575;61;20360;-66
2023/04/26 05:50:57;0.00;0.00;0.62;0.00;0.00;0.62;2.60;1.13;;;23.80;21.90;;;;;;2263704;61;21081;-65
2023/04/26 05:53:42;0.00;0.00;0.62;0.00;0.00;0.62;2.03;1.40;;;23.80;22.00;;;;;;2263862;61;20858;-64
2023/04/26 05:56:27;0.00;0.00;0.62;0.00;0.00;0.62;1.73;1.20;;;23.80;22.00;;;;;;2261283;61;20368;-67
2023/04/26 05:59:13;0.00;0.00;0.62;0.00;0.00;0.62;2.23;1.40;;;23.80;22.00;;;;;;2260497;61;20379;-64
2023/04/26 06:01:57;0.00;0.00;0.62;0.00;0.00;0.62;2.90;1.70;;;23.80;22.00;;;;;;2264521;61;20676;-65
2023/04/26 06:04:43;0.00;0.00;0.62;0.00;0.00;0.62;1.93;1.30;;;23.80;22.00;;;;;;2264004;61;20412;-65
2023/04/26 06:07:31;0.00;0.00;0.62;0.00;0.00;0.62;1.77;1.30;;;23.80;22.00;;;;;;2261414;61;20414;-65
2023/04/26 06:10:16;0.00;0.00;0.62;0.00;0.00;0.62;1.80;1.20;;;23.80;22.00;;;;;;2264165;61;20883;-66
2023/04/26 06:13:01;0.00;0.00;0.62;0.00;0.00;0.62;2.17;1.27;;;23.80;22.50;;;;;;2260625;61;20822;-65
2023/04/26 06:15:48;0.00;0.00;0.62;0.00;0.00;0.62;3.40;1.97;;;23.80;22.00;;;;;;2261271;61;20357;-63
2023/04/26 06:18:33;0.00;0.00;0.62;0.00;0.00;0.62;2.13;1.67;;;23.80;22.00;;;;;;2261312;61;20771;-65
2023/04/26 06:21:19;0.00;0.00;0.62;0.00;0.00;0.62;2.40;1.30;;;23.80;22.00;;;;;;2260816;61;20360;-64
2023/04/26 06:24:05;0.00;0.00;0.62;0.00;0.00;0.62;3.43;1.60;;;23.80;22.00;;;;;;2264047;61;20392;-65
2023/04/26 06:26:50;0.00;0.00;0.62;0.00;0.00;0.62;2.30;1.63;;;23.80;22.50;;;;;;2263545;61;20888;-64
2023/04/26 06:29:35;0.00;0.00;0.62;0.00;0.00;0.62;2.20;1.60;;;23.80;22.00;;;;;;2263900;61;20477;-64
2023/04/26 06:32:21;0.00;0.00;0.62;0.00;0.00;0.62;2.47;1.67;;;23.80;22.00;;;;;;2261107;61;20457;-65
2023/04/26 06:35:06;0.00;0.00;0.62;0.00;0.00;0.62;2.93;1.70;;;23.80;22.00;;;;;;2260547;61;20360;-64
2023/04/26 06:37:52;0.00;0.00;0.62;0.00;0.00;0.62;2.57;1.87;;;23.80;22.00;;;;;;2261041;61;20825;-64
2023/04/26 06:40:38;0.00;0.00;0.62;0.00;0.00;0.62;3.40;2.00;;;23.80;22.00;;;;;;2286847;40;20393;-64
2023/04/26 06:43:23;0.00;0.00;0.62;0.00;0.00;0.62;2.80;2.10;;;23.80;22.00;;;;;;2276244;60;20896;-62
2023/04/26 06:46:24;0.00;0.00;0.62;0.00;0.00;0.62;3.03;2.03;;;23.80;22.00;;;;;;2273246;60;20889;-64
2023/04/26 06:49:11;0.00;0.00;0.62;0.00;0.00;0.62;3.40;2.60;;;23.80;22.00;;;;;;2275742;60;20621;-62
2023/04/26 06:51:56;0.00;0.00;0.62;0.00;0.00;0.62;2.83;1.67;;;23.70;22.00;;;;;;2276616;60;20885;-64
2023/04/26 06:54:42;0.00;0.00;0.62;0.00;0.00;0.62;3.10;2.33;;;23.80;22.00;;;;;;2276175;60;20878;-65
2023/04/26 06:57:27;0.00;0.00;0.62;0.00;0.00;0.62;3.07;1.97;;;23.80;22.00;;;;;;2276130;60;20366;-65
2023/04/26 07:00:13;0.00;0.00;0.62;0.00;0.00;0.62;2.80;2.03;;;23.80;22.00;;;;;;2275845;60;20385;-64
2023/04/26 07:02:58;0.00;0.00;0.62;0.00;0.00;0.62;3.30;2.13;;;23.70;22.00;;;;;;2276405;60;20457;-64
2023/04/26 07:05:42;0.00;0.00;0.62;0.00;0.00;0.62;3.30;2.67;;;23.70;22.00;;;;;;2276222;60;20373;-64
2023/04/26 07:08:27;0.00;0.00;0.62;0.00;0.00;0.62;3.27;2.50;;;23.80;22.00;;;;;;2276552;60;20361;-64
2023/04/26 07:11:13;0.00;0.00;0.62;0.00;0.00;0.62;3.53;2.67;;;23.80;22.00;;;;;;2275656;60;20411;-64
2023/04/26 07:13:58;0.00;0.00;0.62;0.00;0.00;0.62;3.50;2.43;;;23.70;22.00;;;;;;2276137;60;20506;-69
2023/04/26 07:16:42;0.00;0.00;0.62;0.00;0.00;0.62;3.30;2.60;;;23.80;22.00;;;;;;2276340;60;20451;-61
2023/04/26 07:19:27;0.00;0.00;0.62;0.00;0.00;0.62;3.63;3.07;;;23.80;22.00;;;;;;2275597;60;20377;-63
2023/04/26 07:22:12;0.00;0.00;0.62;0.00;0.00;0.62;3.13;2.40;;;23.80;22.10;;;;;;2276520;60;20362;-64
2023/04/26 07:24:56;0.00;0.00;0.62;0.00;0.00;0.62;3.83;2.73;;;23.80;22.10;;;;;;2276244;60;20369;-64
2023/04/26 07:27:43;0.00;0.00;0.62;0.00;0.00;0.62;2.80;2.20;;;23.80;22.10;;;;;;2276133;60;20946;-64
2023/04/26 07:30:28;0.00;0.00;0.62;0.00;0.00;0.62;2.90;2.53;;;23.80;22.10;;;;;;2275984;60;20487;-63
2023/04/26 07:33:13;0.00;0.00;0.62;0.00;0.00;0.62;2.70;2.37;;;23.80;22.10;;;;;;2276179;60;20399;-63
2023/04/26 07:36:00;0.00;0.00;0.62;0.00;0.00;0.62;4.70;2.60;;;23.80;22.10;;;;;;2275822;60;20418;-64
2023/04/26 07:38:44;0.00;0.00;0.62;0.00;0.00;0.62;4.63;3.20;;;23.80;22.10;;;;;;2276355;60;20358;-64
2023/04/26 07:41:29;0.00;0.00;0.62;0.00;0.00;0.62;4.07;3.13;;;23.80;22.00;;;;;;2275817;60;20373;-64
2023/04/26 07:44:16;0.00;0.00;0.62;0.00;0.00;0.62;3.47;2.70;;;23.80;22.10;;;;;;2276209;60;20923;-63
2023/04/26 07:47:00;0.00;0.00;0.62;0.00;0.00;0.62;3.87;2.77;;;23.80;22.10;;;;;;2276523;60;20362;-64
2023/04/26 07:49:45;0.00;0.00;0.62;0.00;0.00;0.62;3.83;3.07;;;23.80;22.00;;;;;;2275499;60;20777;-61
2023/04/26 07:52:30;0.00;0.00;0.62;0.00;0.00;0.62;4.40;3.43;;;23.80;22.00;;;;;;2276375;60;20487;-64
2023/04/26 07:55:15;0.00;0.00;0.62;0.00;0.00;0.62;3.80;3.20;;;23.80;22.10;;;;;;2272745;60;20361;-63
2023/04/26 07:58:00;0.00;0.00;0.62;0.00;0.00;0.62;3.30;2.90;;;23.80;22.00;;;;;;2272886;60;20357;-63
2023/04/26 08:00:46;0.00;0.00;0.62;0.00;0.00;0.62;4.47;3.90;;;23.80;22.00;;;;;;2275847;60;21003;-66
2023/04/26 08:03:31;0.00;0.00;0.62;0.00;0.00;0.62;5.20;3.97;;;23.80;22.10;;;;;;2275826;60;20430;-70
2023/04/26 08:06:17;0.00;0.00;0.62;0.00;0.00;0.62;4.07;3.60;;;23.80;22.00;;;;;;2276176;60;20912;-65
2023/04/26 08:09:02;0.00;0.00;0.62;0.00;0.00;0.62;4.10;3.40;;;23.80;22.10;;;;;;2272738;60;20380;-65
2023/04/26 08:11:46;0.00;0.00;0.62;0.00;0.00;0.62;4.57;3.07;;;23.80;22.00;;;;;;2275630;60;20353;-63
2023/04/26 08:14:33;0.00;0.00;0.62;0.00;0.00;0.62;5.13;3.40;;;23.70;22.00;;;;;;2272865;60;20438;-64
2023/04/26 08:17:19;0.00;0.00;0.62;0.00;0.00;0.62;4.57;3.90;;;23.80;22.10;;;;;;2276234;60;20350;-67
2023/04/26 08:20:05;0.00;0.00;0.62;0.00;0.00;0.62;4.50;3.60;;;23.80;22.10;;;;;;2275377;60;20921;-65
2023/04/26 08:22:55;0.00;0.00;0.62;0.00;0.00;0.62;4.30;3.40;;;23.80;22.10;;;;;;2273030;60;20360;-65
2023/04/26 08:25:40;0.00;0.00;0.62;0.00;0.00;0.62;5.60;4.00;;;23.80;22.10;;;;;;2272423;60;20365;-64
2023/04/26 08:28:25;0.00;0.00;0.62;0.00;0.00;0.62;3.93;2.90;;;23.80;22.10;;;;;;2276055;60;20778;-65
2023/04/26 08:31:10;0.00;0.00;0.62;0.00;0.00;0.62;3.40;2.90;;;23.80;22.10;;;;;;2275856;60;20879;-65
2023/04/26 08:33:56;0.00;0.00;0.62;0.00;0.00;0.62;4.53;3.73;;;23.80;22.10;;;;;;2275458;60;20466;-64
2023/04/26 08:36:41;0.00;0.00;0.62;0.00;0.00;0.62;4.00;3.53;;;23.80;22.00;;;;;;2276603;60;20396;-63
2023/04/26 08:39:26;0.00;0.00;0.62;0.00;0.00;0.62;4.30;3.50;;;23.80;22.00;;;;;;2275395;60;20373;-64
2023/04/26 08:42:14;0.00;0.00;0.62;0.00;0.00;0.62;4.60;3.03;;;23.80;22.10;;;;;;2272783;60;20377;-64
2023/04/26 08:45:01;0.00;0.00;0.62;0.00;0.00;0.62;3.93;3.27;;;23.80;22.00;;;;;;2272628;60;20354;-63
2023/04/26 08:47:49;0.00;0.00;0.62;0.00;0.00;0.62;4.90;3.63;;;23.80;22.00;;;;;;2272526;60;20403;-64
2023/04/26 08:50:38;0.00;0.00;0.62;0.00;0.00;0.62;4.53;3.07;;;23.80;22.00;;;;;;2276144;60;20381;-64
2023/04/26 08:53:23;0.00;0.00;0.62;0.00;0.00;0.62;3.60;3.10;;;23.80;22.00;;;;;;2275767;60;20385;-65
2023/04/26 08:56:11;0.00;0.00;0.62;0.00;0.00;0.62;4.60;4.10;;;23.80;22.00;;;;;;2275747;60;20353;-64
2023/04/26 08:58:58;0.00;0.00;0.62;0.00;0.00;0.62;4.20;3.60;;;23.80;22.00;;;;;;2293019;39;20376;-65
2023/04/26 09:01:43;0.00;0.00;0.62;0.00;0.00;0.62;4.00;2.93;;;23.80;22.00;;;;;;2268863;61;20899;-65
2023/04/26 09:04:28;0.00;0.00;0.62;0.00;0.00;0.62;4.50;3.83;;;23.90;22.10;;;;;;2267876;61;20817;-64
2023/04/26 09:07:20;0.00;0.00;0.62;0.00;0.00;0.62;4.43;3.83;;;23.90;22.10;;;;;;2268208;61;20469;-65
2023/04/26 09:10:07;0.00;0.00;0.62;0.00;0.00;0.62;4.00;3.20;;;23.80;22.10;;;;;;2266690;61;20957;-64
2023/04/26 09:12:52;0.00;0.00;0.62;0.00;0.00;0.62;4.30;3.43;;;23.90;22.10;;;;;;2267980;61;20405;-65
2023/04/26 09:15:37;0.00;0.00;0.62;0.00;0.00;0.62;4.97;3.70;;;23.90;22.10;;;;;;2267927;61;20375;-65
2023/04/26 09:18:23;0.00;0.00;0.62;0.00;0.00;0.62;4.43;3.90;;;23.90;22.10;;;;;;2267565;61;20358;-66
2023/04/26 09:21:08;0.00;0.00;0.62;0.00;0.00;0.62;4.27;3.87;;;23.90;22.10;;;;;;2267680;61;20362;-66
2023/04/26 09:24:00;0.00;0.00;0.62;0.00;0.00;0.62;4.23;3.50;;;23.90;22.10;;;;;;2268268;61;20351;-67
2023/04/26 09:26:46;0.00;0.00;0.62;0.00;0.00;0.62;5.33;3.57;;;23.90;22.10;;;;;;2268512;61;20505;-65
2023/04/26 09:29:30;0.00;0.00;0.62;0.00;0.00;0.62;4.73;3.70;;;23.90;22.10;;;;;;2268241;61;20773;-65
2023/04/26 09:32:15;0.00;0.00;0.62;0.00;0.00;0.62;5.00;4.07;;;23.90;22.10;;;;;;2268309;61;20855;-65
2023/04/26 09:35:00;0.00;0.00;0.62;0.00;0.00;0.62;4.80;3.87;;;23.90;22.10;;;;;;2268388;61;20429;-65
2023/04/26 09:37:52;0.00;0.00;0.62;0.00;0.00;0.62;4.30;3.70;;;23.90;22.10;;;;;;2268657;61;20367;-66
2023/04/26 09:40:40;0.00;0.00;0.62;0.00;0.00;0.62;4.70;4.00;;;23.90;22.10;;;;;;2267853;61;20824;-65
2023/04/26 09:43:24;0.00;0.00;0.62;0.00;0.00;0.62;4.53;3.80;;;23.90;22.10;;;;;;2268574;61;20359;-65
2023/04/26 09:46:09;0.00;0.00;0.62;0.00;0.00;0.62;4.80;3.80;;;23.90;22.10;;;;;;2268386;61;20375;-65
2023/04/26 09:49:01;0.00;0.00;0.62;0.00;0.00;0.62;4.93;4.13;;;23.90;22.20;;;;;;2268198;61;20397;-65
2023/04/26 09:52:03;0.00;0.00;0.62;0.00;0.00;0.62;4.40;3.53;;;23.90;22.10;;;;;;2268682;61;20398;-65
2023/04/26 09:54:50;0.00;0.00;0.62;0.00;0.00;0.62;5.80;4.63;;;24.00;22.20;;;;;;2268011;61;20387;-65
2023/04/26 09:57:45;0.00;0.00;0.62;0.00;0.00;0.62;4.83;3.73;;;24.00;22.20;;;;;;2268696;61;20600;-65
2023/04/26 10:00:30;0.00;0.00;0.62;0.00;0.00;0.62;5.63;4.17;;;24.00;22.20;;;;;;2267610;61;20432;-65
2023/04/26 10:03:17;0.00;0.00;0.62;0.00;0.00;0.62;4.73;3.80;;;24.00;22.20;;;;;;2265181;61;20390;-64
2023/04/26 10:06:03;0.00;0.00;0.62;0.00;0.00;0.62;4.47;3.87;;;24.00;22.20;;;;;;2268749;61;20410;-64
2023/04/26 10:08:47;0.00;0.00;0.62;0.00;0.00;0.62;5.47;4.40;;;24.00;22.20;;;;;;2268423;61;20938;-65
2023/04/26 10:11:34;0.00;0.00;0.62;0.00;0.00;0.62;5.17;3.80;;;24.00;22.20;;;;;;2268547;61;20355;-65
2023/04/26 10:14:21;0.00;0.00;0.62;0.00;0.00;0.62;4.80;4.00;;;24.00;22.20;;;;;;2268427;61;20379;-66
2023/04/26 10:17:05;0.00;0.00;0.62;0.00;0.00;0.62;4.70;3.90;;;24.00;22.20;;;;;;2268115;61;20387;-65
2023/04/26 10:19:55;0.00;0.00;0.62;0.00;0.00;0.62;5.03;4.27;;;24.00;22.20;;;;;;2265059;61;20794;-65
2023/04/26 10:22:49;0.00;0.00;0.62;0.00;0.00;0.62;5.13;4.47;;;24.00;22.20;;;;;;2268818;61;20820;-65
2023/04/26 10:25:35;0.00;0.00;0.62;0.00;0.00;0.62;4.43;3.90;;;24.00;22.20;;;;;;2268211;61;20884;-65
2023/04/26 10:28:55;0.00;0.00;0.62;0.00;0.00;0.62;4.50;3.80;;;24.10;22.20;;;;;;2268433;61;20359;-65
2023/04/26 10:32:10;0.00;0.00;0.62;0.00;0.00;0.62;5.03;4.30;;;24.10;22.30;;;;;;2268004;61;20412;-65
2023/04/26 10:35:12;0.00;0.00;0.62;0.00;0.00;0.62;4.60;4.20;;;24.10;22.30;;;;;;2264841;61;20847;-65
2023/04/26 10:38:09;0.00;0.00;0.62;0.00;0.00;0.62;4.43;3.97;;;24.10;22.20;;;;;;2268201;61;20351;-65
2023/04/26 10:40:54;0.00;0.00;0.62;0.00;0.00;0.62;5.10;3.77;;;24.10;22.30;;;;;;2267967;61;20375;-64
2023/04/26 10:43:41;0.00;0.00;0.62;0.00;0.00;0.62;5.00;4.47;;;24.10;22.20;;;;;;2268546;61;20355;-65
2023/04/26 10:46:36;0.00;0.00;0.62;0.00;0.00;0.62;5.83;4.90;;;24.10;22.20;;;;;;2267994;61;20371;-65
2023/04/26 10:49:22;0.00;0.00;0.62;0.00;0.00;0.62;5.17;4.67;;;24.10;22.20;;;;;;2268046;61;20375;-65
2023/04/26 10:52:11;0.00;0.00;0.62;0.00;0.00;0.62;4.73;4.10;;;24.10;22.20;;;;;;2268534;61;20363;-64
2023/04/26 10:54:58;0.00;0.00;0.62;0.00;0.00;0.62;4.73;3.93;;;24.10;22.20;;;;;;2267987;61;20872;-65
2023/04/26 10:57:49;0.00;0.00;0.62;0.00;0.00;0.62;4.10;3.60;;;24.10;22.20;;;;;;2268609;61;20363;-65
2023/04/26 11:00:34;0.00;0.00;0.62;0.00;0.00;0.62;4.37;3.97;;;24.10;22.20;;;;;;2267602;61;20394;-65